Terminal Aerodrome Forecast
Issued by NWS

Home | Current Version | Previous Version | Graphics & Text | Print | Product List | Glossary On
Versions: 1 2 3 4 5 6 7 8 9 10 11 12 13 14 15 16 17 18 19
000
FTUS43 KOAX 212324
TAFCDR
TAF
KCDR 212324Z 2200/2224 10018G23KT P6SM BKN150
     FM220400 14018G26KT P6SM -SHRA SCT025 BKN050
     FM220600 17022G29KT P6SM SCT050 OVC100
     FM221400 20016KT P6SM OVC250=

USA.gov is the U.S. government's official web portal to all federal, state and local government web resources and services.